Time;durP1;ratioP1;P1;durP2;ratioP2;P2;SDS_P1;SDS_P2;PMS_P1;PMS_P2;Temp;Humidity;BMP_temperature;BMP_pressure;BME280_temperature;BME280_humidity;BME280_pressure;Samples;Min_cycle;Max_cycle;Signal;HPM_P1;HPM_P2
2023/08/30 00:00:17;;;;;;;18.02;10.18;;;;;;;27.16;nan;97963.34;4885708;29;20063;-62
2023/08/30 00:02:46;;;;;;;18.67;10.05;;;;;;;27.19;nan;97960.78;4881520;29;20055;-63
2023/08/30 00:05:16;;;;;;;18.70;10.18;;;;;;;27.29;nan;97967.84;4871346;29;20489;-63
2023/08/30 00:07:48;;;;;;;18.00;9.32;;;;;;;27.14;nan;97968.28;4891070;29;20060;-63
2023/08/30 00:10:17;;;;;;;22.90;9.95;;;;;;;27.16;nan;97979.66;4889789;29;20119;-62
2023/08/30 00:12:47;;;;;;;19.80;9.10;;;;;;;27.17;nan;97979.31;4873636;29;20445;-63
2023/08/30 00:15:16;;;;;;;22.08;9.85;;;;;;;27.13;nan;97977.59;4887658;29;20056;-63
2023/08/30 00:17:46;;;;;;;15.70;10.35;;;;;;;27.16;nan;97983.19;4890459;29;20062;-62
2023/08/30 00:20:15;;;;;;;17.85;9.50;;;;;;;27.21;nan;97983.03;4887515;29;20470;-63
2023/08/30 00:22:44;;;;;;;18.65;9.82;;;;;;;27.16;nan;97982.38;4884924;29;20088;-63
2023/08/30 00:25:13;;;;;;;24.60;10.88;;;;;;;27.14;nan;97992.75;4890222;29;20496;-63
2023/08/30 00:27:45;;;;;;;23.13;11.73;;;;;;;27.06;nan;97985.38;4883160;29;20068;-63
2023/08/30 00:30:15;;;;;;;24.08;11.75;;;;;;;27.02;nan;97993.38;4873050;29;20074;-63
2023/08/30 00:32:44;;;;;;;29.60;11.68;;;;;;;27.05;nan;97995.47;4880233;29;20108;-63
2023/08/30 00:35:14;;;;;;;21.58;10.82;;;;;;;27.05;nan;98003.63;4890371;29;20044;-63
2023/08/30 00:37:43;;;;;;;20.90;10.75;;;;;;;27.16;nan;97999.50;4890832;29;20056;-63
2023/08/30 00:40:12;;;;;;;34.45;12.15;;;;;;;27.09;nan;98006.50;4890362;29;20044;-62
2023/08/30 00:42:42;;;;;;;24.80;10.93;;;;;;;27.05;nan;98008.25;4871725;29;20774;-62
2023/08/30 00:45:11;;;;;;;19.98;10.63;;;;;;;27.00;nan;98001.03;4889975;29;20052;-63
2023/08/30 00:47:41;;;;;;;20.60;9.85;;;;;;;27.00;nan;98011.09;4884893;29;20084;-63
2023/08/30 00:50:11;;;;;;;16.60;9.73;;;;;;;26.99;nan;98012.25;4885289;29;20062;-63
2023/08/30 00:52:41;;;;;;;17.65;10.77;;;;;;;27.06;nan;98015.28;4884856;29;20049;-62
2023/08/30 00:55:11;;;;;;;25.95;11.85;;;;;;;27.09;nan;98012.72;4883863;29;20108;-63
2023/08/30 00:57:40;;;;;;;25.15;12.15;;;;;;;27.10;nan;98011.63;4884690;29;20637;-63
2023/08/30 01:00:10;;;;;;;28.40;11.40;;;;;;;27.05;nan;98019.13;4879141;29;20048;-63
2023/08/30 01:02:41;;;;;;;25.95;11.30;;;;;;;27.13;nan;98018.38;4877851;29;20063;-61
2023/08/30 01:05:10;;;;;;;25.60;11.57;;;;;;;27.05;nan;98027.28;4880905;29;20417;-62
2023/08/30 01:07:40;;;;;;;19.27;10.32;;;;;;;27.07;nan;98022.34;4872378;29;20053;-62
2023/08/30 01:10:10;;;;;;;20.90;10.85;;;;;;;27.09;nan;98028.25;4865356;29;20478;-61
2023/08/30 01:12:52;;;;;;;19.70;10.70;;;;;;;27.10;nan;98024.41;4881869;29;20052;-62
2023/08/30 01:15:25;;;;;;;19.90;11.23;;;;;;;27.17;nan;98035.66;4878696;29;20151;-62
2023/08/30 01:17:56;;;;;;;21.08;12.38;;;;;;;27.21;nan;98036.59;4865741;29;20336;-63
2023/08/30 01:20:27;;;;;;;17.10;10.82;;;;;;;27.26;nan;98036.47;4869937;29;20074;-62
2023/08/30 01:23:00;;;;;;;19.45;10.50;;;;;;;27.31;nan;98035.50;4867294;29;20117;-63
2023/08/30 01:25:43;;;;;;;23.58;12.00;;;;;;;27.37;nan;98039.66;4888117;29;20055;-64
2023/08/30 01:28:14;;;;;;;;;;;;;;;27.43;nan;98043.84;4872744;29;20052;-62
2023/08/30 01:30:46;;;;;;;24.33;12.02;;;;;;;27.47;nan;98048.34;4873136;29;20039;-62
2023/08/30 01:33:17;;;;;;;20.33;11.18;;;;;;;27.52;nan;98053.66;4870061;29;20060;-61
2023/08/30 01:35:47;;;;;;;26.50;12.63;;;;;;;27.59;nan;98045.00;4886367;29;20052;-61
2023/08/30 01:38:17;;;;;;;27.08;11.43;;;;;;;27.62;nan;98044.34;4895725;29;20048;-61
2023/08/30 01:40:47;;;;;;;23.65;11.52;;;;;;;27.69;nan;98050.13;4873990;29;20552;-60
2023/08/30 01:43:18;;;;;;;23.83;11.70;;;;;;;27.75;nan;98045.34;4887761;29;20636;-61
2023/08/30 01:45:47;;;;;;;24.73;12.40;;;;;;;27.82;nan;98043.72;4873467;29;20472;-61
2023/08/30 01:48:19;;;;;;;26.67;12.50;;;;;;;27.86;nan;98050.13;4876335;29;20060;-61
2023/08/30 01:50:49;;;;;;;21.67;10.83;;;;;;;27.97;nan;98051.41;4872025;29;20508;-61
2023/08/30 01:53:21;;;;;;;23.55;11.27;;;;;;;28.08;nan;98052.69;4887763;29;20402;-61
2023/08/30 01:55:50;;;;;;;25.52;11.93;;;;;;;28.18;nan;98062.47;4888457;29;20108;-61
2023/08/30 01:58:20;;;;;;;22.88;10.43;;;;;;;28.27;nan;98062.47;4881394;29;20678;-62
2023/08/30 02:00:49;;;;;;;28.73;11.52;;;;;;;28.35;nan;98062.44;4857992;29;20049;-61
2023/08/30 02:03:18;;;;;;;31.90;11.55;;;;;;;28.44;nan;98067.88;4867266;29;20053;-62
2023/08/30 02:06:01;;;;;;;46.42;13.35;;;;;;;28.48;nan;98068.81;4887453;29;20120;-61
2023/08/30 02:08:47;;;;;;;93.63;16.85;;;;;;;28.59;nan;98062.69;4875562;29;20061;-61
2023/08/30 02:11:26;;;;;;;83.80;13.82;;;;;;;28.73;nan;98069.88;4876766;29;20248;-61
2023/08/30 02:13:59;;;;;;;43.33;11.55;;;;;;;28.87;nan;98068.56;4872639;29;20389;-61
2023/08/30 02:16:30;;;;;;;37.15;11.60;;;;;;;28.98;nan;98058.91;4886514;29;20081;-62
2023/08/30 02:19:00;;;;;;;29.98;11.48;;;;;;;29.18;nan;98070.16;4879756;29;20060;-62
2023/08/30 02:21:29;;;;;;;42.95;11.13;;;;;;;29.55;nan;98071.28;4872923;29;20061;-62
2023/08/30 02:23:59;;;;;;;41.30;12.25;;;;;;;29.86;nan;98072.50;4888473;29;20063;-62
2023/08/30 02:26:31;;;;;;;36.97;10.75;;;;;;;30.08;nan;98074.09;4887078;29;20056;-62
2023/08/30 02:29:00;;;;;;;28.77;9.20;;;;;;;30.21;nan;98073.00;4871561;29;20058;-62
2023/08/30 02:31:29;;;;;;;31.92;10.15;;;;;;;30.36;nan;98076.25;4880462;29;20057;-63
2023/08/30 02:33:59;;;;;;;28.63;9.52;;;;;;;30.43;nan;98073.75;4881199;29;20675;-63
2023/08/30 02:36:28;;;;;;;29.08;9.43;;;;;;;30.51;nan;98070.97;4874257;29;20116;-62
2023/08/30 02:38:57;;;;;;;32.00;10.35;;;;;;;30.70;nan;98078.63;4878719;29;20048;-64
2023/08/30 02:41:26;;;;;;;28.05;8.52;;;;;;;30.70;nan;98075.91;4880158;29;20434;-62
2023/08/30 02:43:56;;;;;;;28.25;8.82;;;;;;;30.86;nan;98071.34;4881441;29;20140;-63
2023/08/30 02:46:25;;;;;;;31.58;8.27;;;;;;;30.63;nan;98078.38;4881269;29;20052;-62
2023/08/30 02:48:55;;;;;;;25.80;8.43;;;;;;;30.46;nan;98082.09;4873757;29;20400;-62
2023/08/30 02:51:24;;;;;;;28.38;9.65;;;;;;;30.42;nan;98088.56;4868509;29;20052;-62
2023/08/30 02:53:53;;;;;;;29.52;8.95;;;;;;;30.54;nan;98083.13;4886021;29;20090;-62
2023/08/30 02:56:22;;;;;;;33.40;8.98;;;;;;;30.64;nan;98080.78;4873973;29;20402;-63
2023/08/30 02:58:52;;;;;;;26.17;8.82;;;;;;;30.61;nan;98083.41;4875021;29;20052;-62
2023/08/30 03:01:21;;;;;;;29.55;9.13;;;;;;;30.66;nan;98088.66;4885988;29;20061;-63
2023/08/30 03:03:51;;;;;;;30.83;9.23;;;;;;;30.53;nan;98090.56;4874905;29;20049;-62
2023/08/30 03:06:20;;;;;;;32.78;10.13;;;;;;;30.62;nan;98096.75;4884602;29;20057;-63
2023/08/30 03:08:50;;;;;;;25.63;9.10;;;;;;;30.55;nan;98095.69;4875287;29;20581;-61
2023/08/30 03:11:19;;;;;;;26.38;9.55;;;;;;;30.62;nan;98104.16;4889947;29;20052;-62
2023/08/30 03:13:51;;;;;;;27.58;9.40;;;;;;;30.71;nan;98102.13;4890211;29;20056;-62
2023/08/30 03:16:20;;;;;;;30.83;10.95;;;;;;;30.80;nan;98102.03;4873728;29;20120;-63
2023/08/30 03:18:53;;;;;;;29.17;9.63;;;;;;;30.89;nan;98108.19;4876078;29;20061;-62
2023/08/30 03:21:23;;;;;;;25.92;10.40;;;;;;;30.87;nan;98114.00;4883583;29;20052;-63
2023/08/30 03:23:52;;;;;;;27.35;11.13;;;;;;;31.00;nan;98118.38;4890301;29;20053;-62
2023/08/30 03:26:21;;;;;;;25.27;8.70;;;;;;;30.93;nan;98117.31;4874155;29;20151;-62
2023/08/30 03:28:51;;;;;;;34.15;11.23;;;;;;;30.92;nan;98124.72;4875090;29;20116;-62
2023/08/30 03:31:21;;;;;;;24.60;9.20;;;;;;;31.03;nan;98123.16;4874415;29;20631;-63
2023/08/30 03:33:51;;;;;;;27.58;9.32;;;;;;;31.01;nan;98122.72;4874881;29;20067;-63
2023/08/30 03:36:22;;;;;;;30.55;10.02;;;;;;;31.00;nan;98131.22;4886225;29;20056;-62
2023/08/30 03:38:53;;;;;;;33.63;9.48;;;;;;;30.96;nan;98130.28;4882277;29;20061;-62
2023/08/30 03:41:23;;;;;;;32.58;9.98;;;;;;;31.01;nan;98130.91;4888070;29;20060;-62
2023/08/30 03:43:52;;;;;;;29.88;10.43;;;;;;;31.03;nan;98131.34;4868951;29;20056;-62
2023/08/30 03:46:22;;;;;;;30.80;9.05;;;;;;;31.16;nan;98141.16;4885873;29;20375;-63
2023/08/30 03:48:51;;;;;;;22.38;10.13;;;;;;;31.22;nan;98139.00;4883532;29;20064;-65
2023/08/30 03:51:21;;;;;;;27.05;10.70;;;;;;;31.24;nan;98138.69;4882836;29;20056;-64
2023/08/30 03:53:51;;;;;;;22.98;9.63;;;;;;;31.29;nan;98144.72;4888239;29;20052;-64
2023/08/30 03:56:23;;;;;;;30.20;10.50;;;;;;;31.39;nan;98148.94;4871209;29;20064;-64
2023/08/30 03:58:55;;;;;;;;;;;;;;;31.44;nan;98143.25;4886371;29;20060;-64
2023/08/30 04:01:25;;;;;;;32.63;11.40;;;;;;;31.43;nan;98149.84;4879467;29;19934;-64
2023/08/30 04:03:54;;;;;;;27.77;9.95;;;;;;;31.47;nan;98150.75;4867239;29;20056;-64
2023/08/30 04:06:23;;;;;;;22.17;10.65;;;;;;;31.46;nan;98149.19;4888562;29;20480;-64
2023/08/30 04:08:53;;;;;;;35.72;11.88;;;;;;;31.50;nan;98152.84;4890401;29;20056;-64
2023/08/30 04:11:22;;;;;;;33.30;12.02;;;;;;;31.52;nan;98153.28;4901970;29;20071;-64
2023/08/30 04:13:52;;;;;;;30.83;12.30;;;;;;;31.59;nan;98157.09;4874259;29;20071;-63
2023/08/30 04:16:21;;;;;;;35.17;13.02;;;;;;;31.70;nan;98160.13;4885816;29;20056;-64
2023/08/30 04:18:50;;;;;;;29.30;11.07;;;;;;;31.73;nan;98151.25;4891144;29;20064;-63
2023/08/30 04:21:20;;;;;;;23.70;10.40;;;;;;;31.71;nan;98156.25;4867629;29;20378;-64
2023/08/30 04:23:50;;;;;;;34.92;13.43;;;;;;;31.71;nan;98155.47;4874473;29;20059;-64
2023/08/30 04:26:22;;;;;;;29.65;12.05;;;;;;;31.85;nan;98159.44;4885277;29;20551;-64
2023/08/30 04:28:52;;;;;;;32.70;12.93;;;;;;;31.84;nan;98159.78;4881600;29;20139;-64
2023/08/30 04:31:21;;;;;;;37.75;12.35;;;;;;;31.98;nan;98150.06;4887634;29;20291;-64
2023/08/30 04:33:52;;;;;;;35.33;12.82;;;;;;;32.14;nan;98163.84;4887017;29;20139;-63
2023/08/30 04:36:22;;;;;;;35.90;13.07;;;;;;;32.13;nan;98156.00;4873452;29;20053;-63
2023/08/30 04:38:52;;;;;;;39.38;13.93;;;;;;;32.20;nan;98161.69;4889371;29;20060;-63
2023/08/30 04:41:30;;;;;;;36.78;13.60;;;;;;;32.52;nan;98157.91;4870541;29;20092;-63
2023/08/30 04:43:59;;;;;;;31.38;10.73;;;;;;;32.70;nan;98156.47;4872944;29;20052;-65
2023/08/30 04:46:29;;;;;;;30.73;11.02;;;;;;;32.96;nan;98155.97;4889020;29;20136;-65
2023/08/30 04:49:03;;;;;;;29.65;12.65;;;;;;;33.14;nan;98151.78;4866506;29;20527;-65
2023/08/30 04:51:33;;;;;;;33.60;11.65;;;;;;;33.65;nan;98155.34;4891320;29;20053;-65
2023/08/30 04:54:03;;;;;;;30.88;11.43;;;;;;;34.00;nan;98154.59;4870580;29;20445;-64
2023/08/30 04:56:34;;;;;;;38.25;14.23;;;;;;;34.07;nan;98155.56;4872158;29;20076;-63
2023/08/30 04:59:04;;;;;;;30.00;10.18;;;;;;;34.32;nan;98161.59;4887487;29;20048;-65
2023/08/30 05:01:33;;;;;;;26.92;10.93;;;;;;;34.47;nan;98168.19;4886868;29;20069;-65
2023/08/30 05:04:03;;;;;;;24.23;10.13;;;;;;;34.61;nan;98161.00;4872160;29;20060;-63
2023/08/30 05:06:34;;;;;;;25.93;10.77;;;;;;;35.29;nan;98163.06;4873906;29;20048;-63
2023/08/30 05:09:04;;;;;;;29.13;8.73;;;;;;;35.43;nan;98171.56;4868865;29;20048;-64
2023/08/30 05:11:33;;;;;;;32.78;9.05;;;;;;;35.43;nan;98177.09;4871308;29;20610;-63
2023/08/30 05:14:03;;;;;;;29.27;8.73;;;;;;;35.14;nan;98172.25;4870993;29;20048;-64
2023/08/30 05:16:32;;;;;;;28.75;10.20;;;;;;;35.00;nan;98170.03;4872592;29;20724;-64
2023/08/30 05:19:02;;;;;;;27.48;8.73;;;;;;;35.03;nan;98169.28;4868364;29;20056;-64
2023/08/30 05:21:32;;;;;;;29.42;9.27;;;;;;;35.91;nan;98169.16;4862209;29;20053;-63
2023/08/30 05:24:05;;;;;;;22.75;9.60;;;;;;;36.40;nan;98182.84;4885245;29;20386;-63
2023/08/30 05:26:35;;;;;;;29.77;10.45;;;;;;;35.88;nan;98180.94;4882838;29;20076;-64
2023/08/30 05:29:04;;;;;;;28.60;7.88;;;;;;;35.56;nan;98175.72;4886284;29;20304;-64
2023/08/30 05:31:34;;;;;;;25.40;7.85;;;;;;;35.66;nan;98173.53;4888186;29;20056;-64
2023/08/30 05:34:23;;;;;;;16.77;7.30;;;;;;;36.23;nan;98188.94;4887237;29;20049;-63
2023/08/30 05:36:56;;;;;;;18.02;6.60;;;;;;;36.66;nan;98176.50;4878350;29;20056;-63
2023/08/30 05:39:45;;;;;;;21.48;9.20;;;;;;;36.75;nan;98180.53;4869578;29;20053;-64
2023/08/30 05:42:14;;;;;;;19.73;7.93;;;;;;;36.61;nan;98179.59;4866303;29;20628;-64
2023/08/30 05:44:43;;;;;;;26.52;8.23;;;;;;;36.78;nan;98184.53;4885737;29;20204;-63
2023/08/30 05:47:15;;;;;;;17.80;7.50;;;;;;;36.74;nan;98180.91;4887806;29;20048;-63
2023/08/30 05:49:45;;;;;;;20.58;7.75;;;;;;;37.13;nan;98184.13;4880109;29;20059;-64
2023/08/30 05:52:16;;;;;;;19.58;8.00;;;;;;;37.24;nan;98182.25;4883033;29;20753;-63
2023/08/30 05:54:49;;;;;;;22.15;8.30;;;;;;;37.40;nan;98185.53;4868621;29;20052;-67
2023/08/30 05:57:22;;;;;;;21.83;9.48;;;;;;;37.03;nan;98180.06;4866267;29;20056;-66
2023/08/30 05:59:51;;;;;;;16.90;5.68;;;;;;;36.97;nan;98184.31;4879760;29;20048;-66
2023/08/30 06:02:20;;;;;;;18.23;6.97;;;;;;;36.65;nan;98169.38;4884028;29;20064;-66
2023/08/30 06:04:49;;;;;;;16.48;5.80;;;;;;;36.79;nan;98170.34;4876455;29;20067;-66
2023/08/30 06:07:18;;;;;;;19.83;7.28;;;;;;;36.24;nan;98163.75;4878468;29;20128;-66
2023/08/30 06:09:49;;;;;;;22.48;7.25;;;;;;;36.74;nan;98173.44;4875954;29;20052;-66
2023/08/30 06:12:18;;;;;;;24.77;7.65;;;;;;;36.41;nan;98165.94;4881079;29;20140;-66
2023/08/30 06:14:52;;;;;;;22.65;7.85;;;;;;;36.45;nan;98154.94;4882844;29;20063;-66
2023/08/30 06:17:21;;;;;;;28.00;7.70;;;;;;;36.42;nan;98155.69;4868322;29;20052;-66
2023/08/30 06:19:53;;;;;;;24.30;7.57;;;;;;;36.64;nan;98160.31;4885630;29;20160;-66
2023/08/30 06:22:22;;;;;;;20.65;7.68;;;;;;;36.79;nan;98150.22;4885056;29;20517;-66
2023/08/30 06:24:52;;;;;;;25.40;6.30;;;;;;;36.56;nan;98155.06;4887286;29;20053;-67
2023/08/30 06:27:23;;;;;;;27.75;6.45;;;;;;;36.50;nan;98151.06;4871730;29;20057;-66
2023/08/30 06:29:52;;;;;;;20.50;5.25;;;;;;;36.68;nan;98157.59;4857453;29;20053;-66
2023/08/30 06:32:25;;;;;;;24.52;5.78;;;;;;;36.38;nan;98149.34;4885875;29;20140;-66
2023/08/30 06:35:06;;;;;;;23.92;6.03;;;;;;;36.22;nan;98152.28;4888446;29;20071;-66
2023/08/30 06:37:36;;;;;;;25.05;5.82;;;;;;;36.16;nan;98147.50;4882637;29;20053;-66
2023/08/30 06:40:05;;;;;;;19.95;5.32;;;;;;;36.16;nan;98137.22;4892967;29;20052;-66
2023/08/30 06:42:35;;;;;;;17.25;5.13;;;;;;;36.45;nan;98149.44;4891377;29;20057;-66
2023/08/30 06:45:05;;;;;;;18.70;6.03;;;;;;;36.46;nan;98139.97;4876283;29;20726;-66
2023/08/30 06:47:34;;;;;;;22.45;5.65;;;;;;;36.17;nan;98138.84;4890941;29;20156;-65
2023/08/30 06:50:03;;;;;;;20.77;6.18;;;;;;;36.19;nan;98138.47;4882278;29;20052;-65
2023/08/30 06:52:32;;;;;;;22.05;5.07;;;;;;;36.11;nan;98134.00;4876721;29;20095;-65
2023/08/30 06:55:02;;;;;;;22.20;5.68;;;;;;;36.16;nan;98131.72;4886444;29;20055;-67
2023/08/30 06:57:31;;;;;;;22.00;5.43;;;;;;;36.12;nan;98138.34;4882300;29;20108;-66
2023/08/30 07:00:07;;;;;;;22.10;4.90;;;;;;;36.06;nan;98131.56;4889427;29;20044;-65
2023/08/30 07:02:38;;;;;;;28.08;6.57;;;;;;;36.02;nan;98126.81;4890071;29;20097;-66
2023/08/30 07:05:08;;;;;;;26.55;6.25;;;;;;;35.62;nan;98123.84;4880701;29;20048;-66
2023/08/30 07:07:37;;;;;;;26.73;7.95;;;;;;;35.93;nan;98125.50;4886756;29;20059;-67
2023/08/30 07:10:07;;;;;;;28.02;6.50;;;;;;;35.78;nan;98121.75;4879869;29;20053;-66
2023/08/30 07:12:36;;;;;;;20.35;5.53;;;;;;;35.98;nan;98125.19;4878535;29;20052;-65
2023/08/30 07:15:06;;;;;;;30.60;6.22;;;;;;;35.98;nan;98120.44;4877521;29;20076;-65
2023/08/30 07:17:35;;;;;;;27.25;8.13;;;;;;;36.05;nan;98119.75;4881966;29;20052;-66
2023/08/30 07:20:19;;;;;;;23.23;6.00;;;;;;;35.80;nan;98113.13;4877989;29;20109;-66
2023/08/30 07:22:48;;;;;;;23.13;5.57;;;;;;;35.77;nan;98113.84;4873601;29;20066;-68
2023/08/30 07:25:18;;;;;;;19.77;5.32;;;;;;;35.45;nan;98108.63;4876543;29;20089;-66
2023/08/30 07:27:48;;;;;;;25.42;6.53;;;;;;;35.80;nan;98102.09;4878063;29;20052;-66
2023/08/30 07:30:17;;;;;;;20.88;6.22;;;;;;;35.97;nan;98107.03;4882225;29;20638;-65
2023/08/30 07:32:49;;;;;;;24.80;6.35;;;;;;;35.97;nan;98107.03;4880955;29;20066;-64
2023/08/30 07:35:19;;;;;;;26.35;6.00;;;;;;;35.76;nan;98102.00;4881061;29;20446;-66
2023/08/30 07:37:48;;;;;;;18.83;5.75;;;;;;;35.98;nan;98103.13;4881516;29;20131;-66
2023/08/30 07:40:18;;;;;;;28.60;7.22;;;;;;;35.76;nan;98099.25;4881255;29;20167;-66
2023/08/30 07:42:47;;;;;;;26.52;6.65;;;;;;;35.86;nan;98097.81;4886052;29;20254;-66
2023/08/30 07:45:17;;;;;;;26.73;8.30;;;;;;;35.88;nan;98101.00;4881066;29;20052;-65
2023/08/30 07:47:46;;;;;;;22.33;5.93;;;;;;;35.74;nan;98093.34;4876599;29;20152;-65
2023/08/30 07:50:15;;;;;;;18.65;5.25;;;;;;;35.66;nan;98096.38;4875420;29;20045;-66
2023/08/30 07:52:45;;;;;;;21.38;6.85;;;;;;;35.51;nan;98085.13;4877905;29;20045;-66
2023/08/30 07:55:15;;;;;;;24.65;7.07;;;;;;;35.53;nan;98080.03;4876831;29;20057;-66
2023/08/30 07:57:44;;;;;;;24.95;5.53;;;;;;;35.55;nan;98083.19;4878340;29;20773;-66
2023/08/30 08:00:13;;;;;;;24.52;7.00;;;;;;;35.60;nan;98077.38;4879039;29;20188;-66
2023/08/30 08:02:46;;;;;;;25.20;5.65;;;;;;;35.49;nan;98075.66;4867413;29;20071;-65
2023/08/30 08:05:16;;;;;;;23.67;5.82;;;;;;;35.45;nan;98067.31;4881352;29;20057;-66
2023/08/30 08:07:46;;;;;;;25.00;5.13;;;;;;;35.56;nan;98068.25;4888343;29;20079;-66
2023/08/30 08:10:15;;;;;;;14.73;4.78;;;;;;;35.58;nan;98065.16;4867129;29;20548;-65
2023/08/30 08:12:44;;;;;;;23.52;5.35;;;;;;;35.49;nan;98062.66;4890677;29;20056;-65
2023/08/30 08:15:13;;;;;;;23.63;5.70;;;;;;;35.54;nan;98062.31;4887116;29;20048;-66
2023/08/30 08:17:43;;;;;;;23.20;5.35;;;;;;;35.32;nan;98059.66;4874514;29;20080;-66
2023/08/30 08:20:13;;;;;;;23.40;6.07;;;;;;;35.26;nan;98053.66;4870262;29;20148;-66
2023/08/30 08:22:43;;;;;;;25.02;6.57;;;;;;;35.33;nan;98056.50;4885270;29;20493;-66
2023/08/30 08:25:12;;;;;;;20.27;5.05;;;;;;;35.30;nan;98051.75;4877763;29;20060;-66
2023/08/30 08:27:41;;;;;;;22.48;6.60;;;;;;;35.36;nan;98055.75;4871926;29;20048;-66
2023/08/30 08:30:11;;;;;;;27.60;5.60;;;;;;;35.30;nan;98043.50;4879078;29;20056;-66
2023/08/30 08:32:41;;;;;;;22.55;4.78;;;;;;;35.29;nan;98049.38;4863417;29;20048;-66
2023/08/30 08:35:10;;;;;;;23.10;5.20;;;;;;;35.37;nan;98046.34;4876681;29;20072;-67
2023/08/30 08:37:40;;;;;;;33.50;6.40;;;;;;;35.31;nan;98038.78;4880888;29;20052;-67
2023/08/30 08:40:10;;;;;;;27.60;6.53;;;;;;;35.24;nan;98025.69;4877305;29;20053;-68
2023/08/30 08:42:43;;;;;;;23.35;5.30;;;;;;;35.01;nan;98020.19;4881953;29;20059;-67
2023/08/30 08:45:15;;;;;;;24.42;5.53;;;;;;;35.12;nan;98023.13;4878633;29;20052;-66
2023/08/30 08:47:46;;;;;;;27.38;6.43;;;;;;;35.23;nan;98015.06;4881000;29;20044;-66
2023/08/30 08:50:16;;;;;;;20.63;5.93;;;;;;;35.21;nan;98020.94;4877767;29;20129;-66
2023/08/30 08:52:46;;;;;;;34.13;6.53;;;;;;;35.13;nan;98014.50;4881918;29;20052;-68
2023/08/30 08:55:30;;;;;;;24.70;6.25;;;;;;;35.05;nan;98012.78;4884270;29;20155;-69
2023/08/30 08:58:00;;;;;;;25.15;6.03;;;;;;;35.08;nan;98011.25;4878625;29;20161;-68
2023/08/30 09:00:31;;;;;;;21.80;5.18;;;;;;;34.97;nan;98002.03;4879064;29;20052;-68
2023/08/30 09:03:01;;;;;;;21.77;6.30;;;;;;;35.01;nan;98005.63;4884053;29;20040;-68
2023/08/30 09:05:35;;;;;;;34.17;7.47;;;;;;;35.03;nan;97995.84;4879592;29;20087;-68
2023/08/30 09:08:06;;;;;;;23.05;7.03;;;;;;;35.05;nan;97996.25;4884607;29;20060;-68
2023/08/30 09:10:41;;;;;;;28.10;6.65;;;;;;;35.08;nan;97997.50;4868583;29;20141;-68
2023/08/30 09:13:10;;;;;;;28.00;6.93;;;;;;;35.06;nan;97994.31;4867028;29;20060;-68
2023/08/30 09:15:39;;;;;;;25.33;7.25;;;;;;;35.07;nan;97984.88;4881918;29;20176;-68
2023/08/30 09:18:18;;;;;;;23.50;5.57;;;;;;;35.02;nan;97990.72;4880547;29;20059;-67
2023/08/30 09:20:48;;;;;;;19.58;5.88;;;;;;;35.06;nan;97986.06;4879458;29;20072;-67
2023/08/30 09:23:21;;;;;;;25.38;7.38;;;;;;;35.12;nan;97982.63;4877410;29;20053;-68
2023/08/30 09:25:59;;;;;;;35.08;6.93;;;;;;;35.00;nan;97982.03;4878692;29;20533;-66
2023/08/30 09:28:29;;;;;;;23.08;6.25;;;;;;;35.08;nan;97980.97;4877655;29;20079;-66
2023/08/30 09:31:00;;;;;;;27.77;7.18;;;;;;;35.01;nan;97978.09;4880853;29;20067;-66
2023/08/30 09:33:40;;;;;;;18.80;5.70;;;;;;;34.90;nan;97971.66;4877560;29;20056;-65
2023/08/30 09:36:12;;;;;;;26.50;5.78;;;;;;;34.79;nan;97963.22;4877560;29;20045;-65
2023/08/30 09:38:49;;;;;;;29.73;6.85;;;;;;;34.89;nan;97964.56;4874003;29;20124;-66
2023/08/30 09:41:19;;;;;;;25.25;6.78;;;;;;;34.91;nan;97965.00;4880107;29;20068;-66
2023/08/30 09:43:48;;;;;;;29.27;5.75;;;;;;;34.81;nan;97958.16;4877356;29;20492;-66
2023/08/30 09:46:25;;;;;;;37.13;8.77;;;;;;;34.75;nan;97958.84;4875472;29;20358;-65
2023/08/30 09:49:12;;;;;;;19.83;5.32;;;;;;;34.69;nan;97958.38;4876971;29;20108;-66
2023/08/30 09:51:42;;;;;;;26.85;5.50;;;;;;;34.72;nan;97947.41;4866178;29;20404;-65
2023/08/30 09:54:18;;;;;;;28.38;5.40;;;;;;;34.63;nan;97946.84;4883293;29;20059;-68
2023/08/30 09:57:05;;;;;;;19.85;5.75;;;;;;;34.61;nan;97943.66;4883454;29;20057;-67
2023/08/30 09:59:35;;;;;;;26.92;7.18;;;;;;;34.59;nan;97934.19;4882940;29;20052;-67
2023/08/30 10:02:10;;;;;;;28.02;5.85;;;;;;;34.57;nan;97928.25;4882455;29;20140;-68
2023/08/30 10:04:40;;;;;;;22.17;5.55;;;;;;;34.62;nan;97933.44;4886057;29;20121;-68
2023/08/30 10:07:11;;;;;;;27.65;6.28;;;;;;;34.61;nan;97938.16;4886437;29;20144;-65
2023/08/30 10:09:41;;;;;;;21.70;5.93;;;;;;;34.57;nan;97934.56;4888939;29;20060;-65
2023/08/30 10:12:36;;;;;;;16.38;5.40;;;;;;;34.50;nan;97934.47;4886248;29;20052;-65
2023/08/30 10:15:06;;;;;;;27.00;6.75;;;;;;;34.44;nan;97932.38;4887777;29;20434;-66
2023/08/30 10:17:38;;;;;;;23.83;5.55;;;;;;;34.43;nan;97936.31;4884518;29;20116;-68
2023/08/30 10:20:08;;;;;;;29.08;6.65;;;;;;;34.35;nan;97929.88;4864775;29;20058;-69
2023/08/30 10:22:40;;;;;;;31.23;6.60;;;;;;;34.32;nan;97922.38;4855809;29;20160;-68
2023/08/30 10:25:17;;;;;;;23.58;5.68;;;;;;;34.31;nan;97922.72;4882745;29;20064;-68
2023/08/30 10:27:49;;;;;;;26.60;6.28;;;;;;;34.31;nan;97925.47;4882091;29;20054;-69
2023/08/30 10:30:21;;;;;;;27.88;6.28;;;;;;;34.31;nan;97918.03;4884323;29;20049;-67
2023/08/30 10:32:51;;;;;;;28.38;6.43;;;;;;;34.30;nan;97913.69;4882627;29;20052;-66
2023/08/30 10:35:21;;;;;;;24.77;6.60;;;;;;;34.28;nan;97913.25;4888426;29;20060;-65
2023/08/30 10:37:59;;;;;;;29.20;7.03;;;;;;;34.28;nan;97907.75;4888094;29;20399;-66
2023/08/30 10:40:28;;;;;;;19.17;6.50;;;;;;;34.28;nan;97913.25;4882689;29;20485;-66
2023/08/30 10:43:05;;;;;;;26.42;6.55;;;;;;;34.20;nan;97906.06;4887114;29;20049;-65
2023/08/30 10:45:34;;;;;;;27.02;7.07;;;;;;;34.14;nan;97918.47;4886186;29;20501;-66
2023/08/30 10:48:04;;;;;;;32.83;7.30;;;;;;;34.11;nan;97917.28;4886955;29;20048;-64
2023/08/30 10:50:34;;;;;;;25.52;6.10;;;;;;;34.07;nan;97912.88;4887755;29;20536;-68
2023/08/30 10:53:13;;;;;;;23.17;6.72;;;;;;;34.10;nan;97912.94;4884591;29;20048;-67
2023/08/30 10:56:02;;;;;;;29.70;5.95;;;;;;;34.17;nan;97915.81;4883636;29;20536;-68
2023/08/30 10:58:45;;;;;;;29.52;6.20;;;;;;;34.21;nan;97922.16;4885126;29;20151;-68
2023/08/30 11:01:15;;;;;;;24.33;5.80;;;;;;;34.17;nan;97921.31;4882596;29;20426;-67
2023/08/30 11:03:45;;;;;;;27.77;6.88;;;;;;;34.14;nan;97913.00;4888256;29;20291;-66
2023/08/30 11:06:17;;;;;;;26.45;6.68;;;;;;;34.12;nan;97909.81;4881882;29;20049;-67
2023/08/30 11:08:49;;;;;;;31.43;6.43;;;;;;;34.08;nan;97912.50;4879268;29;20083;-67
2023/08/30 11:11:19;;;;;;;36.03;6.88;;;;;;;34.10;nan;97912.13;4877422;29;21196;-68
2023/08/30 11:13:49;;;;;;;29.70;5.90;;;;;;;34.10;nan;97918.44;4879651;29;20049;-67
2023/08/30 11:16:22;;;;;;;23.35;6.60;;;;;;;34.07;nan;97910.94;4879731;29;20827;-65
2023/08/30 11:18:51;;;;;;;28.65;6.43;;;;;;;34.03;nan;97912.03;4886868;29;20414;-67
2023/08/30 11:21:21;;;;;;;25.92;5.75;;;;;;;34.00;nan;97913.53;4878523;29;20056;-65
2023/08/30 11:23:52;;;;;;;33.75;6.22;;;;;;;33.99;nan;97909.19;4887425;29;20059;-67
2023/08/30 11:26:21;;;;;;;22.85;6.72;;;;;;;34.01;nan;97898.63;4882514;29;20056;-67
2023/08/30 11:28:52;;;;;;;28.15;7.00;;;;;;;33.99;nan;97905.66;4880188;29;20072;-68
2023/08/30 11:31:26;;;;;;;33.55;5.88;;;;;;;33.90;nan;97907.84;4883304;29;20057;-66
2023/08/30 11:33:59;;;;;;;26.85;6.22;;;;;;;33.83;nan;97905.75;4881691;29;20055;-66
2023/08/30 11:36:31;;;;;;;26.25;6.43;;;;;;;33.81;nan;97897.88;4866880;29;20053;-67
2023/08/30 11:39:01;;;;;;;28.52;5.30;;;;;;;33.80;nan;97895.50;4886601;29;20187;-68
2023/08/30 11:41:32;;;;;;;27.70;6.03;;;;;;;33.81;nan;97899.84;4853879;29;20083;-68
2023/08/30 11:44:03;;;;;;;24.25;6.88;;;;;;;33.82;nan;97898.66;4884862;29;20049;-67
2023/08/30 11:46:32;;;;;;;21.80;6.85;;;;;;;33.77;nan;97888.78;4882393;29;20139;-65
2023/08/30 11:49:03;;;;;;;21.73;5.47;;;;;;;33.78;nan;97898.59;4891361;29;20067;-66
2023/08/30 11:51:33;;;;;;;25.02;6.43;;;;;;;33.75;nan;97902.09;4877783;29;20049;-66
2023/08/30 11:54:03;;;;;;;24.92;6.82;;;;;;;33.75;nan;97899.34;4884005;29;20112;-67
2023/08/30 11:56:36;;;;;;;29.00;6.15;;;;;;;33.69;nan;97892.53;4884053;29;20052;-66